createdAt,value
2017-02-20T04:00:33.661Z,16.01
2017-02-20T04:00:59.245Z,16.06
2017-02-20T04:01:24.865Z,16.11
2017-02-20T04:01:50.552Z,16
2017-02-20T04:02:16.106Z,16.2
2017-02-20T04:02:41.759Z,16.09
2017-02-20T04:03:07.342Z,16.01
2017-02-20T04:03:32.901Z,16.04
2017-02-20T04:03:58.451Z,16.01
2017-02-20T04:04:24.004Z,16.06
2017-02-20T04:04:49.568Z,16.06
2017-02-20T04:05:15.164Z,16.12
2017-02-20T04:05:40.720Z,16.01
2017-02-20T04:06:06.267Z,16.04
2017-02-20T04:06:31.824Z,15.99
2017-02-20T04:06:57.562Z,16.01
2017-02-20T04:07:23.120Z,16.06
2017-02-20T04:07:48.675Z,16.04
2017-02-20T04:08:14.288Z,16.01
2017-02-20T04:08:39.837Z,16.06
2017-02-20T04:09:05.435Z,16.03
2017-02-20T04:09:31.014Z,16.11
2017-02-20T04:09:56.591Z,16.11
2017-02-20T04:10:22.122Z,16.01
2017-02-20T04:10:47.679Z,16.16
2017-02-20T04:11:13.290Z,16.03
2017-02-20T04:11:38.819Z,16.07
2017-02-20T04:12:04.561Z,16.06
2017-02-20T04:12:30.116Z,16.03
2017-02-20T04:12:55.898Z,16.12
2017-02-20T04:13:21.464Z,16.11
2017-02-20T04:13:47.036Z,16.03
2017-02-20T04:14:12.605Z,16.01
2017-02-20T04:14:38.160Z,16.04
2017-02-20T04:15:03.723Z,16.09
2017-02-20T04:15:29.291Z,16.01
2017-02-20T04:15:54.843Z,16.07
2017-02-20T04:16:20.498Z,16.04
2017-02-20T04:16:46.075Z,16.11
2017-02-20T04:17:11.651Z,16.14
2017-02-20T04:17:37.212Z,16.07
2017-02-20T04:18:02.784Z,16.15
2017-02-20T04:18:28.349Z,16.09
2017-02-20T04:18:53.931Z,16.04
2017-02-20T04:19:19.525Z,16.04
2017-02-20T04:19:45.085Z,16.23
2017-02-20T04:20:10.671Z,15.99
2017-02-20T04:20:36.239Z,16.03
2017-02-20T04:21:01.945Z,16.06
2017-02-20T04:21:27.544Z,16.12
2017-02-20T04:21:53.104Z,16
2017-02-20T04:22:18.664Z,16.03
2017-02-20T04:22:44.308Z,16.12
2017-02-20T04:23:09.869Z,16.11
2017-02-20T04:23:35.428Z,15.96
2017-02-20T04:24:33.857Z,16.09
2017-02-20T04:24:59.435Z,16.03
2017-02-20T04:25:25.012Z,16.04
2017-02-20T04:25:50.594Z,16.04
2017-02-20T04:26:16.114Z,16.06
2017-02-20T04:26:41.658Z,16.03
2017-02-20T04:27:07.196Z,16.03
2017-02-20T04:27:32.736Z,16.14
2017-02-20T04:27:58.290Z,16.01
2017-02-20T04:28:23.828Z,16.06
2017-02-20T04:28:49.372Z,16.15
2017-02-20T04:29:15.104Z,16.12
2017-02-20T04:29:40.666Z,16.15
2017-02-20T04:30:06.227Z,16.07
2017-02-20T04:30:31.789Z,16.07
2017-02-20T04:30:57.506Z,16.11
2017-02-20T04:31:23.083Z,16.07
2017-02-20T04:31:48.640Z,16.04
2017-02-20T04:32:14.213Z,16.11
2017-02-20T04:32:39.770Z,16.06
2017-02-20T04:33:05.344Z,16.04
2017-02-20T04:33:30.955Z,16.01
2017-02-20T04:33:56.513Z,16.12
2017-02-20T04:34:22.072Z,16.06
2017-02-20T04:34:47.681Z,16.04
2017-02-20T04:35:13.240Z,16.01
2017-02-20T04:35:38.827Z,16.03
2017-02-20T04:36:04.393Z,16.12
2017-02-20T04:36:29.964Z,16.03
2017-02-20T04:36:55.536Z,16.01
2017-02-20T04:37:21.095Z,16.01
2017-02-20T04:37:46.643Z,16.07
2017-02-20T04:38:12.282Z,16.06
2017-02-20T04:38:37.953Z,15.99
2017-02-20T04:39:03.514Z,15.97
2017-02-20T04:39:29.105Z,16.09
2017-02-20T04:39:54.665Z,16
2017-02-20T04:40:20.228Z,16.06
2017-02-20T04:40:45.793Z,16.01
2017-02-20T04:41:11.363Z,16.04
2017-02-20T04:41:36.938Z,16.22
2017-02-20T04:42:02.521Z,16.04
2017-02-20T04:42:28.091Z,16.04
2017-02-20T04:42:53.653Z,16.04
2017-02-20T04:43:19.220Z,16.11
2017-02-20T04:43:44.801Z,16.07
2017-02-20T04:44:10.359Z,16.12
2017-02-20T04:44:35.953Z,16.03
2017-02-20T04:45:01.523Z,16.03
2017-02-20T04:45:27.092Z,16.06
2017-02-20T04:45:52.658Z,16.04
2017-02-20T04:46:18.213Z,16.09
2017-02-20T04:46:43.803Z,16.14
2017-02-20T04:47:09.374Z,16.04
2017-02-20T04:47:34.913Z,16.04
2017-02-20T04:48:00.459Z,16.14
2017-02-20T04:48:26.043Z,16
2017-02-20T04:48:51.590Z,16.15
2017-02-20T04:49:17.233Z,16.01
2017-02-20T04:49:42.806Z,16.03
2017-02-20T04:50:08.356Z,16.12
2017-02-20T04:50:34.023Z,16.14
2017-02-20T04:50:59.625Z,16.14
2017-02-20T04:51:25.194Z,16.09
2017-02-20T04:51:50.807Z,16.07
2017-02-20T04:52:16.453Z,16.11
2017-02-20T04:52:42.012Z,16.11
2017-02-20T04:53:07.584Z,16.04
2017-02-20T04:53:33.155Z,15.99
2017-02-20T04:53:58.715Z,16.14
2017-02-20T04:54:24.276Z,16.14
2017-02-20T04:54:49.830Z,16.12
2017-02-20T04:55:15.403Z,16.14
2017-02-20T04:55:40.963Z,16.01
2017-02-20T04:56:06.617Z,16.07
2017-02-20T04:56:32.165Z,16.14
2017-02-20T04:56:57.743Z,16.09
2017-02-20T04:57:23.324Z,16.06
2017-02-20T04:57:48.894Z,16.04
2017-02-20T04:58:14.454Z,16.14
2017-02-20T04:58:40.062Z,16.04
2017-02-20T04:59:05.625Z,15.99
2017-02-20T04:59:31.192Z,16.07
2017-02-20T04:59:56.756Z,16.01
2017-02-20T05:00:22.317Z,16.03
2017-02-20T05:00:47.912Z,16.09
2017-02-20T05:01:13.515Z,15.99
2017-02-20T05:01:39.091Z,16.14
2017-02-20T05:02:04.664Z,16.03
2017-02-20T05:02:30.374Z,16.09
2017-02-20T05:02:55.953Z,16.03
2017-02-20T05:03:21.513Z,16.04
2017-02-20T05:03:47.095Z,16.12
2017-02-20T05:04:12.754Z,16.07
2017-02-20T05:04:38.315Z,16.11
2017-02-20T05:05:03.973Z,16
2017-02-20T05:05:29.621Z,16.12
2017-02-20T05:05:55.181Z,16.12
2017-02-20T05:06:20.742Z,16.12
2017-02-20T05:06:46.382Z,16.01
2017-02-20T05:07:11.941Z,16.06
2017-02-20T05:07:37.491Z,16.06
2017-02-20T05:08:03.054Z,16.18
2017-02-20T05:08:28.803Z,16.11
2017-02-20T05:08:54.375Z,16.06
2017-02-20T05:09:19.933Z,16.06
2017-02-20T05:09:45.540Z,16.03
2017-02-20T05:10:11.115Z,16.06
2017-02-20T05:10:36.685Z,16.03
2017-02-20T05:11:02.275Z,16.01
2017-02-20T05:11:27.917Z,16.07
2017-02-20T05:11:53.473Z,16
2017-02-20T05:12:19.030Z,16.14
2017-02-20T05:12:44.594Z,16.12
2017-02-20T05:13:10.208Z,16.11
2017-02-20T05:13:35.780Z,16.11
2017-02-20T05:14:01.364Z,16.11
2017-02-20T05:14:26.965Z,16.06
2017-02-20T05:14:52.617Z,16.04
2017-02-20T05:15:18.175Z,16.11
2017-02-20T05:15:43.799Z,16.03
2017-02-20T05:16:09.365Z,16.09
2017-02-20T05:16:34.933Z,16.01
2017-02-20T05:17:00.492Z,16.06
2017-02-20T05:17:26.057Z,16.03
2017-02-20T05:17:51.703Z,16.14
2017-02-20T05:18:17.374Z,16.01
2017-02-20T05:18:42.939Z,16.06
2017-02-20T05:19:08.605Z,16.06
2017-02-20T05:19:34.175Z,16.12
2017-02-20T05:19:59.746Z,16.11
2017-02-20T05:20:25.366Z,16.11
2017-02-20T05:20:50.925Z,16.14
2017-02-20T05:21:16.511Z,16.04
2017-02-20T05:21:42.191Z,16.06
2017-02-20T05:22:07.791Z,16.06
2017-02-20T05:22:33.359Z,16.01
2017-02-20T05:22:59.055Z,16.03
2017-02-20T05:23:24.626Z,16.06
2017-02-20T05:23:50.192Z,16.11
2017-02-20T05:24:15.759Z,16.07
2017-02-20T05:24:41.438Z,16.04
2017-02-20T05:25:07.005Z,16.16
2017-02-20T05:25:32.585Z,16.04
2017-02-20T05:25:58.151Z,16.06
2017-02-20T05:26:23.705Z,16.11
2017-02-20T05:26:49.300Z,16.01
2017-02-20T05:27:14.860Z,16.06
2017-02-20T05:27:40.401Z,16.06
2017-02-20T05:28:05.981Z,16.12
2017-02-20T05:28:31.653Z,16.01
2017-02-20T05:28:57.292Z,16.12
2017-02-20T05:29:50.724Z,16
2017-02-20T05:30:16.295Z,16.01
2017-02-20T05:30:41.844Z,16.04
2017-02-20T05:31:07.396Z,16.12
2017-02-20T05:31:33.004Z,16.06
2017-02-20T05:31:58.572Z,16.15
2017-02-20T05:32:24.140Z,16.16
2017-02-20T05:32:49.693Z,16.01
2017-02-20T05:33:15.364Z,16.09
2017-02-20T05:33:40.933Z,16.09
2017-02-20T05:34:06.495Z,16.06
2017-02-20T05:34:32.063Z,16
2017-02-20T05:34:57.615Z,16.11
2017-02-20T05:35:23.151Z,16.04
2017-02-20T05:35:48.756Z,16.14
2017-02-20T05:36:14.272Z,16.01
2017-02-20T05:36:39.815Z,16.03
2017-02-20T05:37:05.365Z,16.01
2017-02-20T05:37:31.017Z,16.04
2017-02-20T05:37:56.569Z,16.07
2017-02-20T05:38:22.111Z,16.03
2017-02-20T05:38:47.660Z,16.01
2017-02-20T05:39:13.229Z,16.03
2017-02-20T05:39:38.864Z,16.12
2017-02-20T05:40:04.449Z,16.09
2017-02-20T05:40:30.121Z,16.01
2017-02-20T05:40:55.761Z,16.11
2017-02-20T05:41:21.335Z,16.07
2017-02-20T05:41:46.897Z,16.09
2017-02-20T05:42:12.495Z,15.99
2017-02-20T05:42:38.065Z,16.11
2017-02-20T05:43:03.632Z,16.09
2017-02-20T05:43:29.321Z,16.09
2017-02-20T05:43:54.896Z,16.14
2017-02-20T05:44:20.472Z,16.07
2017-02-20T05:44:46.122Z,16.06
2017-02-20T05:45:11.770Z,16.06
2017-02-20T05:45:37.355Z,16
2017-02-20T05:46:02.973Z,16.11
2017-02-20T05:46:28.536Z,16.09
2017-02-20T05:46:54.141Z,16.06
2017-02-20T05:47:19.690Z,16.01
2017-02-20T05:47:45.373Z,16.15
2017-02-20T05:48:10.937Z,16.15
2017-02-20T05:48:36.481Z,16.15
2017-02-20T05:49:02.051Z,16.04
2017-02-20T05:49:27.615Z,16.12
2017-02-20T05:49:53.173Z,16.14
2017-02-20T05:50:18.732Z,16.06
2017-02-20T05:50:44.314Z,16.11
2017-02-20T05:51:09.875Z,16.03
2017-02-20T05:51:35.555Z,16.12
2017-02-20T05:52:01.109Z,16.06
2017-02-20T05:52:26.665Z,16.14
2017-02-20T05:52:52.241Z,16.16
2017-02-20T05:53:17.783Z,16.16
2017-02-20T05:53:43.355Z,16.06
2017-02-20T05:54:08.892Z,16.06
2017-02-20T05:54:34.454Z,16.07
2017-02-20T05:55:00.065Z,16.04
2017-02-20T05:55:25.647Z,16.03
2017-02-20T05:55:51.195Z,16.03
2017-02-20T05:56:16.752Z,16.06
2017-02-20T05:56:42.349Z,16.03
2017-02-20T05:57:07.918Z,16.09
2017-02-20T05:57:33.529Z,16.12
2017-02-20T05:57:59.095Z,16.18
2017-02-20T05:58:24.652Z,16.01
2017-02-20T05:58:50.321Z,16.07
2017-02-20T05:59:15.903Z,16.11
2017-02-20T05:59:41.462Z,16.01
2017-02-20T06:00:07.041Z,16.06
2017-02-20T06:00:32.723Z,16.15
2017-02-20T06:00:58.293Z,16.09
2017-02-20T06:01:23.873Z,16.14
2017-02-20T06:01:49.475Z,16.03
2017-02-20T06:02:15.098Z,16.04
2017-02-20T06:02:40.663Z,16.03
2017-02-20T06:03:06.315Z,16.03
2017-02-20T06:03:31.881Z,16.06
2017-02-20T06:03:57.448Z,16.12
2017-02-20T06:04:23.027Z,16.11
2017-02-20T06:04:48.652Z,16.12
2017-02-20T06:05:14.201Z,16.01
2017-02-20T06:05:39.856Z,16.03
2017-02-20T06:06:05.458Z,16
2017-02-20T06:06:31.004Z,16.06
2017-02-20T06:07:39.584Z,16.04
2017-02-20T06:08:05.156Z,16.14
2017-02-20T06:08:30.748Z,16.06
2017-02-20T06:08:56.380Z,16.14
2017-02-20T06:09:21.939Z,16.15
2017-02-20T06:09:47.515Z,16.06
2017-02-20T06:10:13.220Z,16
2017-02-20T06:10:38.804Z,16.06
2017-02-20T06:11:04.354Z,16.14
2017-02-20T06:11:29.923Z,16.01
2017-02-20T06:11:55.496Z,16.03
2017-02-20T06:12:21.066Z,16.04
2017-02-20T06:12:46.631Z,16.04
2017-02-20T06:13:12.201Z,16.04
2017-02-20T06:13:37.759Z,16.09
2017-02-20T06:14:03.408Z,16.09
2017-02-20T06:14:28.985Z,16
2017-02-20T06:14:54.571Z,16.04
2017-02-20T06:15:20.170Z,16.07
2017-02-20T06:15:45.752Z,16.03
2017-02-20T06:16:11.326Z,16.07
2017-02-20T06:16:36.903Z,16.06
2017-02-20T06:17:02.587Z,16.04
2017-02-20T06:17:28.164Z,16.04
2017-02-20T06:17:53.745Z,16.09
2017-02-20T06:18:19.334Z,16.07
2017-02-20T06:18:44.984Z,16.06
2017-02-20T06:19:10.539Z,16.07
2017-02-20T06:19:36.112Z,16.04
2017-02-20T06:20:01.694Z,16.04
2017-02-20T06:20:27.238Z,16.07
2017-02-20T06:20:52.812Z,16.04
2017-02-20T06:21:18.397Z,16.04
2017-02-20T06:21:43.921Z,16.09
2017-02-20T06:22:09.495Z,16.07
2017-02-20T06:22:35.094Z,16.07
2017-02-20T06:23:00.657Z,16.11
2017-02-20T06:23:26.227Z,16.03
2017-02-20T06:23:51.786Z,16.09
2017-02-20T06:24:17.363Z,16.09
2017-02-20T06:24:42.945Z,16.04
2017-02-20T06:25:08.513Z,16.12
2017-02-20T06:25:34.075Z,16.07
2017-02-20T06:25:59.759Z,16.11
2017-02-20T06:26:25.338Z,16.06
2017-02-20T06:26:50.979Z,16.04
2017-02-20T06:27:16.631Z,16.01
2017-02-20T06:27:42.209Z,16.11
2017-02-20T06:28:07.779Z,16.07
2017-02-20T06:28:33.414Z,16.03
2017-02-20T06:28:58.980Z,16.11
2017-02-20T06:29:24.556Z,16.04
2017-02-20T06:29:50.091Z,16.07
2017-02-20T06:30:15.768Z,16
2017-02-20T06:30:41.347Z,16.07
2017-02-20T06:31:06.905Z,16.14
2017-02-20T06:31:32.571Z,16.09
2017-02-20T06:31:58.142Z,15.99
2017-02-20T06:32:23.695Z,16.11
2017-02-20T06:32:49.360Z,16
2017-02-20T06:33:14.963Z,16.06
2017-02-20T06:33:40.525Z,16
2017-02-20T06:34:06.074Z,16.06
2017-02-20T06:34:31.632Z,16
2017-02-20T06:34:57.238Z,16.09
2017-02-20T06:35:22.795Z,16.06
2017-02-20T06:35:48.369Z,16.07
2017-02-20T06:36:13.926Z,16.03
2017-02-20T06:36:39.533Z,16.04
2017-02-20T06:37:05.094Z,16.03
2017-02-20T06:37:30.675Z,16.12
2017-02-20T06:37:56.225Z,16.12
2017-02-20T06:38:21.909Z,16.03
2017-02-20T06:38:47.476Z,16.03
2017-02-20T06:39:13.105Z,16.12
2017-02-20T06:39:38.762Z,16.11
2017-02-20T06:40:04.339Z,16.04
2017-02-20T06:40:30.011Z,16.12
2017-02-20T06:40:55.574Z,16.09
2017-02-20T06:41:21.148Z,16.14
2017-02-20T06:41:46.748Z,16.09
2017-02-20T06:42:12.433Z,16.06
2017-02-20T06:42:37.991Z,16.07
2017-02-20T06:43:03.576Z,16.06
2017-02-20T06:43:29.144Z,16.06
2017-02-20T06:43:54.703Z,16.12
2017-02-20T06:44:20.265Z,16.09
2017-02-20T06:44:45.823Z,16.11
2017-02-20T06:45:11.402Z,16.04
2017-02-20T06:45:36.961Z,16.07
2017-02-20T06:46:02.555Z,16.12
2017-02-20T06:46:28.134Z,16.09
2017-02-20T06:46:53.684Z,16.06
2017-02-20T06:47:19.315Z,16.12
2017-02-20T06:47:44.904Z,16.07
2017-02-20T06:48:10.529Z,16.12
2017-02-20T06:48:36.183Z,16.06
2017-02-20T06:49:01.772Z,16.06
2017-02-20T06:49:27.324Z,16.12
2017-02-20T06:49:53.006Z,16.04
2017-02-20T06:50:18.566Z,16.11
2017-02-20T06:50:44.123Z,16.09
2017-02-20T06:51:09.684Z,16.06
2017-02-20T06:51:35.385Z,16.09
2017-02-20T06:52:00.937Z,16.14
2017-02-20T06:52:26.498Z,16.09
2017-02-20T06:52:52.177Z,16.11
2017-02-20T06:53:17.733Z,16.06
2017-02-20T06:53:43.292Z,16.09
2017-02-20T06:54:08.853Z,16.11
2017-02-20T06:54:34.449Z,16.09
2017-02-20T06:55:00.014Z,16.03
2017-02-20T06:55:25.590Z,16.03
2017-02-20T06:55:51.166Z,16.09
2017-02-20T06:56:16.731Z,16.09
2017-02-20T06:56:42.384Z,16.07
2017-02-20T06:57:07.983Z,16.09
2017-02-20T06:57:33.545Z,16.14
2017-02-20T06:57:59.105Z,16.07
2017-02-20T06:58:24.776Z,16.06
2017-02-20T06:58:50.337Z,16.11
2017-02-20T06:59:15.913Z,16.14
2017-02-20T06:59:41.515Z,16.09
2017-02-20T07:00:07.123Z,16.06
2017-02-20T07:01:10.649Z,16.12
2017-02-20T07:01:36.236Z,16.14
2017-02-20T07:02:01.818Z,16.16
2017-02-20T07:02:27.380Z,16.11
2017-02-20T07:02:52.991Z,16.04
2017-02-20T07:03:18.566Z,16.11
2017-02-20T07:03:44.182Z,16.06
2017-02-20T07:04:09.763Z,16.12
2017-02-20T07:04:35.326Z,16.06
2017-02-20T07:05:00.886Z,16.06
2017-02-20T07:05:26.411Z,16.07
2017-02-20T07:05:51.972Z,16.01
2017-02-20T07:06:17.548Z,16.16
2017-02-20T07:06:43.068Z,16.03
2017-02-20T07:07:08.624Z,16.07
2017-02-20T07:07:34.194Z,16.14
2017-02-20T07:07:59.769Z,16.2
2017-02-20T07:08:25.340Z,16.11
2017-02-20T07:08:50.914Z,16.09
2017-02-20T07:09:16.504Z,16.07
2017-02-20T07:09:42.045Z,16.15
2017-02-20T07:10:07.608Z,16.11
2017-02-20T07:10:33.166Z,16.22
2017-02-20T07:10:58.734Z,16.14
2017-02-20T07:11:24.314Z,16.15
2017-02-20T07:11:49.877Z,16.14
2017-02-20T07:12:15.464Z,16.07
2017-02-20T07:12:41.073Z,16.2
2017-02-20T07:13:06.628Z,16.15
2017-02-20T07:13:32.185Z,16.16
2017-02-20T07:13:57.785Z,16.14
2017-02-20T07:14:23.355Z,16.15
2017-02-20T07:14:48.983Z,16.23
2017-02-20T07:15:14.574Z,16.2
2017-02-20T07:15:40.150Z,16.2
2017-02-20T07:16:05.706Z,16.18
2017-02-20T07:16:31.292Z,16.22
2017-02-20T07:16:56.841Z,16.15
2017-02-20T07:17:22.460Z,16.23
2017-02-20T07:17:48.034Z,16.15
2017-02-20T07:18:13.615Z,16.18
2017-02-20T07:18:39.166Z,16.16
2017-02-20T07:19:04.725Z,16.23
2017-02-20T07:19:30.326Z,16.2
2017-02-20T07:19:55.871Z,16.2
2017-02-20T07:20:21.426Z,16.18
2017-02-20T07:20:47.021Z,16.23
2017-02-20T07:21:12.597Z,16.23
2017-02-20T07:21:38.179Z,16.25
2017-02-20T07:22:03.744Z,16.25
2017-02-20T07:22:29.321Z,16.25
2017-02-20T07:22:54.907Z,16.25
2017-02-20T07:23:20.470Z,16.23
2017-02-20T07:23:46.075Z,16.23
2017-02-20T07:24:11.681Z,16.25
2017-02-20T07:24:37.247Z,16.22
2017-02-20T07:25:02.814Z,16.26
2017-02-20T07:25:28.385Z,16.25
2017-02-20T07:25:53.980Z,16.25
2017-02-20T07:26:19.592Z,16.2
2017-02-20T07:26:45.163Z,16.22
2017-02-20T07:27:10.719Z,16.22
2017-02-20T07:27:36.387Z,16.22
2017-02-20T07:28:01.955Z,16.23
2017-02-20T07:28:27.500Z,16.22
2017-02-20T07:28:53.071Z,16.22
2017-02-20T07:29:18.654Z,16.25
2017-02-20T07:29:44.229Z,16.23
2017-02-20T07:30:09.795Z,16.27
2017-02-20T07:30:35.375Z,16.22
2017-02-20T07:31:00.922Z,16.33
2017-02-20T07:31:26.607Z,16.27
2017-02-20T07:31:52.183Z,16.31
2017-02-20T07:32:17.739Z,16.25
2017-02-20T07:32:43.279Z,16.33
2017-02-20T07:33:08.838Z,16.3
2017-02-20T07:33:34.384Z,16.31
2017-02-20T07:33:59.951Z,16.2
2017-02-20T07:34:25.539Z,16.34
2017-02-20T07:34:51.116Z,16.3
2017-02-20T07:35:16.766Z,16.34
2017-02-20T07:35:42.356Z,16.25
2017-02-20T07:36:07.924Z,16.3
2017-02-20T07:36:33.551Z,16.27
2017-02-20T07:36:59.125Z,16.31
2017-02-20T07:37:24.833Z,16.3
2017-02-20T07:37:50.413Z,16.23
2017-02-20T07:38:15.972Z,16.3
2017-02-20T07:38:41.565Z,16.26
2017-02-20T07:39:07.177Z,16.23
2017-02-20T07:39:32.772Z,16.18
2017-02-20T07:39:58.340Z,16.3
2017-02-20T07:40:23.957Z,16.33
2017-02-20T07:40:49.585Z,16.23
2017-02-20T07:41:15.148Z,16.33
2017-02-20T07:41:40.686Z,16.23
2017-02-20T07:42:06.393Z,16.34
2017-02-20T07:42:31.962Z,16.3
2017-02-20T07:42:57.526Z,16.34
2017-02-20T07:43:23.080Z,16.38
2017-02-20T07:43:48.751Z,16.3
2017-02-20T07:44:14.332Z,16.27
2017-02-20T07:44:39.893Z,16.33
2017-02-20T07:45:05.533Z,16.31
2017-02-20T07:45:31.122Z,16.2
2017-02-20T07:45:56.683Z,16.3
2017-02-20T07:46:22.361Z,16.38
2017-02-20T07:46:47.931Z,16.37
2017-02-20T07:47:13.488Z,16.3
2017-02-20T07:47:39.131Z,16.33
2017-02-20T07:48:04.753Z,16.27
2017-02-20T07:48:30.312Z,16.3
2017-02-20T07:48:55.987Z,16.2
2017-02-20T07:49:21.605Z,16.31
2017-02-20T07:49:47.161Z,16.34
2017-02-20T07:50:12.723Z,16.3
2017-02-20T07:50:38.433Z,16.22
2017-02-20T07:51:03.996Z,16.3
2017-02-20T07:51:29.579Z,16.33
2017-02-20T07:51:55.161Z,16.31
2017-02-20T07:52:20.803Z,16.3
2017-02-20T07:52:46.362Z,16.33
2017-02-20T07:53:11.968Z,16.34
2017-02-20T07:53:37.532Z,16.3
2017-02-20T07:54:03.162Z,16.33
2017-02-20T07:54:28.739Z,16.3
2017-02-20T07:54:54.391Z,16.35
2017-02-20T07:55:19.950Z,16.2
2017-02-20T07:55:45.521Z,16.31
2017-02-20T07:56:11.236Z,16.26
2017-02-20T07:56:36.809Z,16.31
2017-02-20T07:57:02.387Z,16.3
2017-02-20T07:57:28.015Z,16.33
2017-02-20T07:57:53.589Z,16.23
2017-02-20T07:58:19.182Z,16.34
2017-02-20T07:58:44.738Z,16.33
2017-02-20T07:59:10.478Z,16.31
2017-02-20T07:59:36.047Z,16.35
2017-02-20T08:00:01.621Z,16.33
2017-02-20T08:00:27.185Z,16.33
2017-02-20T08:00:52.766Z,16.33
2017-02-20T08:01:18.326Z,16.31
2017-02-20T08:01:43.934Z,16.31
2017-02-20T08:02:09.624Z,16.31
2017-02-20T08:02:35.194Z,16.2
2017-02-20T08:03:00.755Z,16.27
2017-02-20T08:03:26.332Z,16.31
2017-02-20T08:03:51.892Z,16.2
2017-02-20T08:04:17.456Z,16.31
2017-02-20T08:04:43.046Z,16.23
2017-02-20T08:05:08.606Z,16.25
2017-02-20T08:05:34.171Z,16.25
2017-02-20T08:05:59.785Z,16.25
2017-02-20T08:06:25.342Z,16.23
2017-02-20T08:06:51.009Z,16.33
2017-02-20T08:07:16.587Z,16.34
2017-02-20T08:07:42.127Z,16.33
2017-02-20T08:08:07.694Z,16.34
2017-02-20T08:08:33.412Z,16.25
2017-02-20T08:08:58.985Z,16.27
2017-02-20T08:09:24.550Z,16.2
2017-02-20T08:09:50.119Z,16.3
2017-02-20T08:10:15.817Z,16.23
2017-02-20T08:10:41.582Z,16.26
2017-02-20T08:11:07.154Z,16.22
2017-02-20T08:11:32.706Z,16.25
2017-02-20T08:11:58.292Z,16.26
2017-02-20T08:12:23.872Z,16.35
2017-02-20T08:12:49.451Z,16.33
2017-02-20T08:13:15.089Z,16.33
2017-02-20T08:13:40.630Z,16.26
2017-02-20T08:14:06.197Z,16.2
2017-02-20T08:14:31.794Z,16.26
2017-02-20T08:14:57.383Z,16.34
2017-02-20T08:15:23.019Z,16.34
2017-02-20T08:15:48.604Z,16.38
2017-02-20T08:16:14.167Z,16.35
2017-02-20T08:16:39.830Z,16.22
2017-02-20T08:17:05.473Z,16.26
2017-02-20T08:17:31.023Z,16.34
2017-02-20T08:17:56.580Z,16.26
2017-02-20T08:18:22.260Z,16.27
2017-02-20T08:18:47.835Z,16.37
2017-02-20T08:19:13.419Z,16.3
2017-02-20T08:19:38.975Z,16.33
2017-02-20T08:20:04.657Z,16.38
2017-02-20T08:20:30.221Z,16.37
2017-02-20T08:20:55.810Z,16.33
2017-02-20T08:21:21.424Z,16.33
2017-02-20T08:21:47.103Z,16.44
2017-02-20T08:22:12.675Z,16.35
2017-02-20T08:22:38.239Z,16.37
2017-02-20T08:23:03.886Z,16.38
2017-02-20T08:23:29.454Z,16.4
2017-02-20T08:23:55.012Z,16.41
2017-02-20T08:24:20.662Z,16.37
2017-02-20T08:24:46.215Z,16.37
2017-02-20T08:25:11.777Z,16.35
2017-02-20T08:25:37.369Z,16.35
2017-02-20T08:26:02.932Z,16.38
2017-02-20T08:26:28.511Z,16.34
2017-02-20T08:26:54.068Z,16.33
2017-02-20T08:27:19.693Z,16.4
2017-02-20T08:27:45.244Z,16.35
2017-02-20T08:28:10.841Z,16.37
2017-02-20T08:28:36.417Z,16.4
2017-02-20T08:29:02.001Z,16.4
2017-02-20T08:29:27.653Z,16.37
2017-02-20T08:29:53.204Z,16.35
2017-02-20T08:30:18.766Z,16.31
2017-02-20T08:30:44.457Z,16.37
2017-02-20T08:31:10.025Z,16.35
2017-02-20T08:31:35.596Z,16.42
2017-02-20T08:32:01.156Z,16.44
2017-02-20T08:32:26.732Z,16.38
2017-02-20T08:32:52.316Z,16.42
2017-02-20T08:33:17.887Z,16.4
2017-02-20T08:33:43.661Z,16.35
2017-02-20T08:34:09.217Z,16.37
2017-02-20T08:34:34.857Z,16.37
2017-02-20T08:35:00.415Z,16.37
2017-02-20T08:35:26.020Z,16.35
2017-02-20T08:35:51.593Z,16.42
2017-02-20T08:37:00.321Z,16.41
2017-02-20T08:37:25.905Z,16.38
2017-02-20T08:37:51.675Z,16.38
2017-02-20T08:38:17.255Z,16.3
2017-02-20T08:38:42.828Z,16.37
2017-02-20T08:39:08.396Z,16.34
2017-02-20T08:39:33.960Z,16.34
2017-02-20T08:39:59.513Z,16.41
2017-02-20T08:40:25.076Z,16.41
2017-02-20T08:40:50.648Z,16.37
2017-02-20T08:41:16.203Z,16.37
2017-02-20T08:41:41.753Z,16.38
2017-02-20T08:42:07.372Z,16.41
2017-02-20T08:42:32.936Z,16.37
2017-02-20T08:42:58.484Z,16.37
2017-02-20T08:43:24.035Z,16.37
2017-02-20T08:43:49.603Z,16.38
2017-02-20T08:44:15.182Z,16.4
2017-02-20T08:44:40.807Z,16.35
2017-02-20T08:45:06.371Z,16.38
2017-02-20T08:45:31.934Z,16.35
2017-02-20T08:45:57.588Z,16.41
2017-02-20T08:46:23.134Z,16.37
2017-02-20T08:46:48.743Z,16.37
2017-02-20T08:47:14.407Z,16.37
2017-02-20T08:47:39.984Z,16.37
2017-02-20T08:48:05.534Z,16.42
2017-02-20T08:48:31.112Z,16.41
2017-02-20T08:48:56.761Z,16.44
2017-02-20T08:49:22.310Z,16.42
2017-02-20T08:49:47.841Z,16.37
2017-02-20T08:50:13.433Z,16.37
2017-02-20T08:50:39.004Z,16.38
2017-02-20T08:51:04.547Z,16.37
2017-02-20T08:51:30.109Z,16.44
2017-02-20T08:51:55.643Z,16.48
2017-02-20T08:52:21.192Z,16.4
2017-02-20T08:52:46.753Z,16.38
2017-02-20T08:53:12.329Z,16.38
2017-02-20T08:53:37.907Z,16.44
2017-02-20T08:54:03.454Z,16.37
2017-02-20T08:54:29.014Z,16.35
2017-02-20T08:54:54.587Z,16.37
2017-02-20T08:55:20.150Z,16.4
2017-02-20T08:55:45.719Z,16.42
2017-02-20T08:56:11.292Z,16.35
2017-02-20T08:56:36.851Z,16.44
2017-02-20T08:57:02.497Z,16.42
2017-02-20T08:57:28.060Z,16.4
2017-02-20T08:57:53.616Z,16.44
2017-02-20T08:58:19.281Z,16.41
2017-02-20T08:58:44.852Z,16.38
2017-02-20T08:59:53.405Z,16.42
2017-02-20T09:00:41.270Z,16.4
2017-02-20T09:01:06.863Z,16.44
2017-02-20T09:01:32.447Z,16.38
2017-02-20T09:01:58.014Z,16.38
2017-02-20T09:02:23.583Z,16.44
2017-02-20T09:02:49.151Z,16.45
2017-02-20T09:03:14.705Z,16.49
2017-02-20T09:03:40.341Z,16.42
2017-02-20T09:04:05.895Z,16.37
2017-02-20T09:04:31.460Z,16.38
2017-02-20T09:04:57.150Z,16.42
2017-02-20T09:05:22.702Z,16.45
2017-02-20T09:05:48.260Z,16.42
2017-02-20T09:06:13.809Z,16.42
2017-02-20T09:06:39.361Z,16.44
2017-02-20T09:07:04.919Z,16.41
2017-02-20T09:07:30.583Z,16.49
2017-02-20T09:07:56.153Z,16.42
2017-02-20T09:08:21.734Z,16.45
2017-02-20T09:08:47.347Z,16.35
2017-02-20T09:09:13.238Z,16.41
2017-02-20T09:09:38.831Z,16.48
2017-02-20T09:10:04.373Z,16.48
2017-02-20T09:10:29.940Z,16.41
2017-02-20T09:10:55.524Z,16.44
2017-02-20T09:11:21.091Z,16.45
2017-02-20T09:11:46.658Z,16.35
2017-02-20T09:12:12.306Z,16.48
2017-02-20T09:12:37.855Z,16.5
2017-02-20T09:13:03.431Z,16.42
2017-02-20T09:13:29.002Z,16.44
2017-02-20T09:13:54.571Z,16.48
2017-02-20T09:14:20.214Z,16.4
2017-02-20T09:14:45.819Z,16.35
2017-02-20T09:15:11.379Z,16.44
2017-02-20T09:15:36.929Z,16.48
2017-02-20T09:16:02.537Z,16.45
2017-02-20T09:16:28.095Z,16.42
2017-02-20T09:16:53.648Z,16.49
2017-02-20T09:17:19.337Z,16.44
2017-02-20T09:17:44.900Z,16.5
2017-02-20T09:18:10.465Z,16.45
2017-02-20T09:18:36.043Z,16.48
2017-02-20T09:19:01.609Z,16.5
2017-02-20T09:19:27.192Z,16.42
2017-02-20T09:19:52.739Z,16.45
2017-02-20T09:20:18.289Z,16.42
2017-02-20T09:20:43.851Z,16.48
2017-02-20T09:21:09.521Z,16.42
2017-02-20T09:21:35.069Z,16.48
2017-02-20T09:22:00.611Z,16.4
2017-02-20T09:22:26.158Z,16.44
2017-02-20T09:22:51.723Z,16.5
2017-02-20T09:23:17.323Z,16.48
2017-02-20T09:23:42.942Z,16.49
2017-02-20T09:24:08.494Z,16.48
2017-02-20T09:24:34.113Z,16.5
2017-02-20T09:24:59.685Z,16.45
2017-02-20T09:25:25.274Z,16.44
2017-02-20T09:25:50.934Z,16.41
2017-02-20T09:26:16.551Z,16.49
2017-02-20T09:26:42.115Z,16.48
2017-02-20T09:27:07.685Z,16.49
2017-02-20T09:27:33.358Z,16.45
2017-02-20T09:27:58.951Z,16.52
2017-02-20T09:28:24.501Z,16.45
2017-02-20T09:28:50.099Z,16.52
2017-02-20T09:29:15.773Z,16.5
2017-02-20T09:29:41.353Z,16.44
2017-02-20T09:30:06.899Z,16.48
2017-02-20T09:31:00.266Z,16.52
2017-02-20T09:31:25.947Z,16.5
2017-02-20T09:31:51.615Z,16.44
2017-02-20T09:32:17.183Z,16.45
2017-02-20T09:32:42.820Z,16.37
2017-02-20T09:33:08.415Z,16.42
2017-02-20T09:33:33.984Z,16.45
2017-02-20T09:33:59.603Z,16.48
2017-02-20T09:34:25.185Z,16.48
2017-02-20T09:34:50.804Z,16.48
2017-02-20T09:35:16.365Z,16.45
2017-02-20T09:35:41.914Z,16.52
2017-02-20T09:36:07.590Z,16.4